createdAt,value
2019-05-22T00:01:38.015Z,13.60
2019-05-22T00:04:26.170Z,13.70
2019-05-22T00:06:56.735Z,13.80
2019-05-22T00:09:28.459Z,13.80
2019-05-22T00:11:59.216Z,13.70
2019-05-22T00:14:29.611Z,13.70
2019-05-22T00:16:59.377Z,13.70
2019-05-22T00:19:29.079Z,13.70
2019-05-22T00:22:17.246Z,13.70
2019-05-22T00:24:47.405Z,13.70
2019-05-22T00:27:18.242Z,13.70
2019-05-22T00:29:48.939Z,13.60
2019-05-22T00:32:18.174Z,13.60
2019-05-22T00:34:49.170Z,13.60
2019-05-22T00:37:18.860Z,13.60
2019-05-22T00:39:48.690Z,13.60
2019-05-22T00:42:19.042Z,13.50
2019-05-22T00:44:50.522Z,13.50
2019-05-22T00:47:19.950Z,13.40
2019-05-22T00:49:50.711Z,13.30
2019-05-22T00:52:41.079Z,13.30
2019-05-22T00:55:28.002Z,13.30
2019-05-22T00:58:04.778Z,13.30
2019-05-22T01:00:37.267Z,13.20
2019-05-22T01:03:07.579Z,13.10
2019-05-22T01:05:39.178Z,13.00
2019-05-22T01:08:08.446Z,12.90
2019-05-22T01:10:39.189Z,12.90
2019-05-22T01:13:09.873Z,12.90
2019-05-22T01:15:40.682Z,12.90
2019-05-22T01:18:11.484Z,12.80
2019-05-22T01:20:42.310Z,12.80
2019-05-22T01:23:17.906Z,12.80
2019-05-22T01:25:48.000Z,12.70
2019-05-22T01:28:17.234Z,12.80
2019-05-22T01:30:57.359Z,12.80
2019-05-22T01:33:32.553Z,12.70
2019-05-22T01:36:16.382Z,12.70
2019-05-22T01:38:47.685Z,12.70
2019-05-22T01:41:20.983Z,12.60
2019-05-22T01:43:52.631Z,12.60
2019-05-22T01:46:22.730Z,12.70
2019-05-22T01:48:54.150Z,12.70
2019-05-22T01:51:23.605Z,12.70
2019-05-22T01:53:54.051Z,12.80
2019-05-22T01:56:24.804Z,12.80
2019-05-22T01:58:54.981Z,12.80
2019-05-22T02:01:26.798Z,12.80
2019-05-22T02:04:02.239Z,12.80
2019-05-22T02:06:32.473Z,12.80
2019-05-22T02:09:30.931Z,12.70
2019-05-22T02:12:05.781Z,12.70
2019-05-22T02:14:35.020Z,12.80
2019-05-22T02:17:04.952Z,12.80
2019-05-22T02:19:35.193Z,12.90
2019-05-22T02:22:05.938Z,12.90
2019-05-22T02:24:36.517Z,13.00
2019-05-22T02:27:06.089Z,13.00
2019-05-22T02:29:36.053Z,12.90
2019-05-22T02:32:06.866Z,12.90
2019-05-22T02:34:37.154Z,12.90
2019-05-22T02:37:07.629Z,13.00
2019-05-22T02:39:38.372Z,13.00
2019-05-22T02:42:13.198Z,13.00
2019-05-22T02:44:42.717Z,12.90
2019-05-22T02:47:20.138Z,12.90
2019-05-22T02:49:45.482Z,12.90
2019-05-22T02:52:15.546Z,13.00
2019-05-22T02:54:45.315Z,13.00
2019-05-22T02:57:14.769Z,13.00
2019-05-22T02:59:43.919Z,13.00
2019-05-22T03:02:14.207Z,13.00
2019-05-22T03:05:11.206Z,13.10
2019-05-22T03:07:40.710Z,13.10
2019-05-22T03:10:12.216Z,13.10
2019-05-22T03:12:41.780Z,13.00
2019-05-22T03:15:16.469Z,13.00
2019-05-22T03:17:47.382Z,12.90
2019-05-22T03:20:19.321Z,12.90
2019-05-22T03:23:33.653Z,13.00
2019-05-22T03:26:02.814Z,13.10
2019-05-22T03:28:31.991Z,13.10
2019-05-22T03:31:01.196Z,13.10
2019-05-22T03:33:30.847Z,13.10
2019-05-22T03:36:12.198Z,13.10
2019-05-22T03:38:41.877Z,13.00
2019-05-22T03:41:12.078Z,13.00
2019-05-22T03:43:44.055Z,13.10
2019-05-22T03:46:33.323Z,13.10
2019-05-22T03:49:02.908Z,13.00
2019-05-22T03:51:32.505Z,13.00
2019-05-22T03:54:02.008Z,13.00
2019-05-22T03:56:31.226Z,12.90
2019-05-22T03:59:00.901Z,12.90
2019-05-22T04:01:31.655Z,12.90
2019-05-22T04:04:02.431Z,13.00
2019-05-22T04:06:33.442Z,13.10
2019-05-22T04:09:12.479Z,13.10
2019-05-22T04:11:44.974Z,13.10
2019-05-22T04:14:14.937Z,13.10
2019-05-22T04:16:45.194Z,13.20
2019-05-22T04:19:15.762Z,13.20
2019-05-22T04:21:45.961Z,13.20
2019-05-22T04:24:15.921Z,13.20
2019-05-22T04:26:45.121Z,13.20
2019-05-22T04:29:14.821Z,13.10
2019-05-22T04:31:49.614Z,13.10
2019-05-22T04:34:19.957Z,13.00
2019-05-22T04:36:50.089Z,12.90
2019-05-22T04:39:24.283Z,12.90
2019-05-22T04:41:54.130Z,12.90
2019-05-22T04:44:23.298Z,12.90
2019-05-22T04:46:52.770Z,13.00
2019-05-22T04:49:21.947Z,13.00
2019-05-22T04:51:51.140Z,13.00
2019-05-22T04:54:20.340Z,13.00
2019-05-22T04:56:50.005Z,13.10
2019-05-22T04:59:19.269Z,13.10
2019-05-22T05:01:48.999Z,13.10
2019-05-22T05:04:18.817Z,13.10
2019-05-22T05:06:47.981Z,13.10
2019-05-22T05:09:17.697Z,13.10
2019-05-22T05:11:49.652Z,13.10
2019-05-22T05:14:19.053Z,13.10
2019-05-22T05:16:48.749Z,13.20
2019-05-22T05:19:18.040Z,13.30
2019-05-22T05:21:47.301Z,13.30
2019-05-22T05:24:16.441Z,13.40
2019-05-22T05:26:46.263Z,13.40
2019-05-22T05:29:31.048Z,13.50
2019-05-22T05:32:01.461Z,13.50
2019-05-22T05:34:56.408Z,13.40
2019-05-22T05:37:26.377Z,13.50
2019-05-22T05:40:40.345Z,13.50
2019-05-22T05:43:19.368Z,13.50
2019-05-22T05:45:48.772Z,13.60
2019-05-22T05:48:24.092Z,13.60
2019-05-22T05:51:29.084Z,13.60
2019-05-22T05:54:05.588Z,13.60
2019-05-22T05:56:35.663Z,13.70
2019-05-22T05:59:05.738Z,13.80
2019-05-22T06:01:42.669Z,13.80
2019-05-22T06:04:11.759Z,13.80
2019-05-22T06:07:18.355Z,13.90
2019-05-22T06:09:50.522Z,13.80
2019-05-22T06:12:19.942Z,13.80
2019-05-22T06:14:49.213Z,13.90
2019-05-22T06:18:13.884Z,13.90
2019-05-22T06:20:43.073Z,14.10
2019-05-22T06:23:52.461Z,14.00
2019-05-22T06:27:02.455Z,14.10
2019-05-22T06:29:55.863Z,14.30
2019-05-22T06:33:04.229Z,14.50
2019-05-22T06:35:35.283Z,14.50
2019-05-22T06:38:27.707Z,14.70
2019-05-22T06:40:56.896Z,14.70
2019-05-22T06:44:11.986Z,14.80
2019-05-22T06:46:44.562Z,14.90
2019-05-22T06:49:44.495Z,15.00
2019-05-22T06:52:13.729Z,15.00
2019-05-22T06:54:43.009Z,15.00
2019-05-22T06:57:15.479Z,15.10
2019-05-22T06:59:46.609Z,15.20
2019-05-22T07:02:17.337Z,15.30
2019-05-22T07:04:47.319Z,15.40
2019-05-22T07:07:17.448Z,15.40
2019-05-22T07:09:46.635Z,15.40
2019-05-22T07:12:18.314Z,15.60
2019-05-22T07:15:47.557Z,15.80
2019-05-22T07:18:20.186Z,15.70
2019-05-22T07:20:50.471Z,15.80
2019-05-22T07:23:23.529Z,15.90
2019-05-22T07:25:53.545Z,16.10
2019-05-22T07:28:23.278Z,16.40
2019-05-22T07:30:52.530Z,16.50
2019-05-22T07:33:22.453Z,16.40
2019-05-22T07:36:08.607Z,16.50
2019-05-22T07:38:23.557Z,16.70
2019-05-22T07:40:53.124Z,16.80
2019-05-22T07:43:23.214Z,16.90
2019-05-22T07:45:52.737Z,17.10
2019-05-22T07:48:25.741Z,17.40
2019-05-22T07:50:55.324Z,17.50
2019-05-22T07:53:25.276Z,17.80
2019-05-22T07:55:54.821Z,18.00
2019-05-22T07:58:24.032Z,18.10
2019-05-22T08:01:00.763Z,18.10
2019-05-22T08:03:31.692Z,18.20
2019-05-22T08:06:01.425Z,18.30
2019-05-22T08:08:33.278Z,18.10
2019-05-22T08:11:04.093Z,17.80
2019-05-22T08:13:33.954Z,17.70
2019-05-22T08:16:03.132Z,17.70
2019-05-22T08:18:36.148Z,17.60
2019-05-22T08:21:05.329Z,17.70
2019-05-22T08:23:34.486Z,17.90
2019-05-22T08:26:03.651Z,17.90
2019-05-22T08:28:33.271Z,17.90
2019-05-22T08:31:02.856Z,18.00
2019-05-22T08:33:32.759Z,18.20
2019-05-22T08:36:02.072Z,17.90
2019-05-22T08:38:32.749Z,17.90
2019-05-22T08:41:03.051Z,17.90
2019-05-22T08:43:49.597Z,17.80
2019-05-22T08:46:04.434Z,17.80
2019-05-22T08:48:34.601Z,17.70
2019-05-22T08:51:05.001Z,17.40
2019-05-22T08:53:46.639Z,17.40
2019-05-22T08:56:05.247Z,17.30
2019-05-22T08:58:36.711Z,17.10
2019-05-22T09:01:05.821Z,16.90
2019-05-22T09:03:35.377Z,16.80
2019-05-22T09:06:04.492Z,16.90
2019-05-22T09:08:33.661Z,17.00
2019-05-22T09:11:03.874Z,17.20
2019-05-22T09:13:33.141Z,17.70
2019-05-22T09:16:03.053Z,18.10
2019-05-22T09:18:32.234Z,17.70
2019-05-22T09:21:01.336Z,17.80
2019-05-22T09:23:30.498Z,17.90
2019-05-22T09:25:59.961Z,18.00
2019-05-22T09:28:29.260Z,18.30
2019-05-22T09:30:58.439Z,18.40
2019-05-22T09:33:28.450Z,18.30
2019-05-22T09:35:58.037Z,18.80
2019-05-22T09:38:27.202Z,18.90
2019-05-22T09:40:56.661Z,19.00
2019-05-22T09:43:25.838Z,19.50
2019-05-22T09:45:55.001Z,19.90
2019-05-22T09:48:24.296Z,19.90
2019-05-22T09:50:53.458Z,19.50
2019-05-22T09:53:23.273Z,19.10
2019-05-22T09:55:53.126Z,18.70
2019-05-22T09:58:22.297Z,18.80
2019-05-22T10:00:51.536Z,18.60
2019-05-22T10:03:21.266Z,18.60
2019-05-22T10:05:50.484Z,18.70
2019-05-22T10:08:19.850Z,19.10
2019-05-22T10:10:49.010Z,19.40
2019-05-22T10:13:18.389Z,20.00
2019-05-22T10:15:47.477Z,20.10
2019-05-22T10:18:17.238Z,20.10
2019-05-22T10:20:46.719Z,19.90
2019-05-22T10:23:16.638Z,20.10
2019-05-22T10:25:45.963Z,20.10
2019-05-22T10:28:15.545Z,20.10
2019-05-22T10:30:44.669Z,20.20
2019-05-22T10:33:13.847Z,20.70
2019-05-22T10:35:43.450Z,20.90
2019-05-22T10:38:12.766Z,20.90
2019-05-22T10:40:41.915Z,21.20
2019-05-22T10:43:11.079Z,21.10
2019-05-22T10:45:40.645Z,21.00
2019-05-22T10:48:09.744Z,21.30
2019-05-22T10:50:38.923Z,21.40
2019-05-22T10:53:08.546Z,21.40
2019-05-22T10:55:39.161Z,21.60
2019-05-22T10:58:08.386Z,21.70
2019-05-22T11:00:37.537Z,21.20
2019-05-22T11:03:07.017Z,21.50
2019-05-22T11:05:36.574Z,21.30
2019-05-22T11:08:06.845Z,20.90
2019-05-22T11:10:36.041Z,20.70
2019-05-22T11:13:05.393Z,20.40
2019-05-22T11:15:34.577Z,20.00
2019-05-22T11:18:03.737Z,19.70
2019-05-22T11:20:33.007Z,19.80
2019-05-22T11:23:02.969Z,19.60
2019-05-22T11:25:32.496Z,19.30
2019-05-22T11:28:01.684Z,19.20
2019-05-22T11:30:31.161Z,19.30
2019-05-22T11:33:01.055Z,19.20
2019-05-22T11:35:30.627Z,19.10
2019-05-22T11:38:00.097Z,19.00
2019-05-22T11:40:29.285Z,19.10
2019-05-22T11:42:58.616Z,18.90
2019-05-22T11:45:28.133Z,18.80
2019-05-22T11:47:57.316Z,19.00
2019-05-22T11:50:27.982Z,18.70
2019-05-22T11:52:57.142Z,18.60
2019-05-22T11:55:42.789Z,18.50
2019-05-22T11:57:57.053Z,18.40
2019-05-22T12:00:26.778Z,18.30
2019-05-22T12:02:56.626Z,18.30
2019-05-22T12:05:26.599Z,18.20
2019-05-22T12:07:55.766Z,18.10
2019-05-22T12:10:25.513Z,18.20
2019-05-22T12:12:55.105Z,18.20
2019-05-22T12:15:27.202Z,18.30
2019-05-22T12:17:56.438Z,18.50
2019-05-22T12:20:26.377Z,18.70
2019-05-22T12:22:56.265Z,18.90
2019-05-22T12:25:25.934Z,19.00
2019-05-22T12:27:55.650Z,19.10
2019-05-22T12:30:24.851Z,19.10
2019-05-22T12:32:55.390Z,19.20
2019-05-22T12:35:25.590Z,18.90
2019-05-22T12:37:55.533Z,18.80
2019-05-22T12:40:25.100Z,18.60
2019-05-22T12:42:54.445Z,18.40
2019-05-22T12:45:29.760Z,18.40
2019-05-22T12:48:00.317Z,18.70
2019-05-22T12:50:29.989Z,18.70
2019-05-22T12:53:00.519Z,19.00
2019-05-22T12:55:30.460Z,18.80
2019-05-22T12:57:59.666Z,18.50
2019-05-22T13:00:29.961Z,18.30
2019-05-22T13:03:00.101Z,18.20
2019-05-22T13:05:30.066Z,17.80
2019-05-22T13:07:59.397Z,17.50
2019-05-22T13:10:28.754Z,17.00
2019-05-22T13:12:57.929Z,16.80
2019-05-22T13:15:28.100Z,16.80
2019-05-22T13:17:57.820Z,16.60
2019-05-22T13:20:41.809Z,16.50
2019-05-22T13:23:01.791Z,16.50
2019-05-22T13:25:32.743Z,16.30
2019-05-22T13:28:03.246Z,16.20
2019-05-22T13:30:32.954Z,16.20
2019-05-22T13:33:02.113Z,16.10
2019-05-22T13:35:31.559Z,16.10
2019-05-22T13:38:01.278Z,16.10
2019-05-22T13:40:32.636Z,15.70
2019-05-22T13:43:02.220Z,15.80
2019-05-22T13:45:31.802Z,15.80
2019-05-22T13:48:01.064Z,15.80
2019-05-22T13:50:30.714Z,15.70
2019-05-22T13:53:03.096Z,15.70
2019-05-22T13:55:32.884Z,15.60
2019-05-22T13:58:02.108Z,15.40
2019-05-22T14:00:31.569Z,15.50
2019-05-22T14:03:00.853Z,15.50
2019-05-22T14:05:31.121Z,15.40
2019-05-22T14:08:00.254Z,15.40
2019-05-22T14:10:30.655Z,15.40
2019-05-22T14:13:01.151Z,15.40
2019-05-22T14:15:48.175Z,15.30
2019-05-22T14:18:01.391Z,15.20
2019-05-22T14:20:30.591Z,15.00
2019-05-22T14:22:59.773Z,15.10
2019-05-22T14:25:29.469Z,15.00
2019-05-22T14:27:58.572Z,15.00
2019-05-22T14:30:28.076Z,15.00
2019-05-22T14:32:57.770Z,14.90
2019-05-22T14:35:45.034Z,14.70
2019-05-22T14:37:59.642Z,14.80
2019-05-22T14:40:28.826Z,14.80
2019-05-22T14:42:58.055Z,14.80
2019-05-22T14:45:27.251Z,14.90
2019-05-22T14:47:56.459Z,14.90
2019-05-22T14:50:26.205Z,14.70
2019-05-22T14:52:55.378Z,14.50
2019-05-22T14:55:24.738Z,14.50
2019-05-22T14:57:53.899Z,14.40
2019-05-22T15:00:23.093Z,14.40
2019-05-22T15:02:56.573Z,14.30
2019-05-22T15:05:23.654Z,14.40
2019-05-22T15:07:52.886Z,14.40
2019-05-22T15:10:21.982Z,14.40
2019-05-22T15:12:51.561Z,14.40
2019-05-22T15:15:21.326Z,14.20
2019-05-22T15:17:50.894Z,14.20
2019-05-22T15:20:23.634Z,14.20
2019-05-22T15:22:55.989Z,14.20
2019-05-22T15:25:24.399Z,14.10
2019-05-22T15:27:54.714Z,14.20
2019-05-22T15:30:23.905Z,14.00
2019-05-22T15:32:53.276Z,13.90
2019-05-22T15:35:22.497Z,14.00
2019-05-22T15:37:51.913Z,14.00
2019-05-22T15:40:22.033Z,14.10
2019-05-22T15:42:51.237Z,13.90
2019-05-22T15:45:21.839Z,13.80
2019-05-22T15:47:55.461Z,13.70
2019-05-22T15:50:26.979Z,13.70
2019-05-22T15:52:59.783Z,13.70
2019-05-22T15:55:30.151Z,13.70
2019-05-22T15:57:59.805Z,13.70
2019-05-22T16:00:30.432Z,13.80
2019-05-22T16:02:59.941Z,13.80
2019-05-22T16:05:29.214Z,13.80
2019-05-22T16:07:58.420Z,13.80
2019-05-22T16:10:27.942Z,13.80
2019-05-22T16:12:57.106Z,13.60
2019-05-22T16:15:26.981Z,13.60
2019-05-22T16:18:10.272Z,13.50
2019-05-22T16:20:27.364Z,13.50
2019-05-22T16:22:57.721Z,13.50
2019-05-22T16:25:27.497Z,13.40
2019-05-22T16:27:56.748Z,13.30
2019-05-22T16:30:27.998Z,13.20
2019-05-22T16:32:57.873Z,13.00
2019-05-22T16:35:27.089Z,12.90
2019-05-22T16:37:57.409Z,12.90
2019-05-22T16:40:27.322Z,12.80
2019-05-22T16:42:57.600Z,12.70
2019-05-22T16:45:26.856Z,12.70
2019-05-22T16:47:56.453Z,12.80
2019-05-22T16:50:26.114Z,12.80
2019-05-22T16:52:56.384Z,12.80
2019-05-22T16:55:25.546Z,12.80
2019-05-22T16:57:55.551Z,12.70
2019-05-22T17:00:25.135Z,12.80
2019-05-22T17:02:54.321Z,12.80
2019-05-22T17:05:23.509Z,12.80
2019-05-22T17:07:54.034Z,12.80
2019-05-22T17:10:24.476Z,12.70
2019-05-22T17:12:53.772Z,12.80
2019-05-22T17:15:23.775Z,12.80
2019-05-22T17:17:53.347Z,12.70
2019-05-22T17:20:24.583Z,12.70
2019-05-22T17:22:54.126Z,12.60
2019-05-22T17:25:23.381Z,12.60
2019-05-22T17:27:52.559Z,12.50
2019-05-22T17:30:23.233Z,12.60
2019-05-22T17:32:52.459Z,12.50
2019-05-22T17:35:21.627Z,12.50
2019-05-22T17:37:50.818Z,12.50
2019-05-22T17:40:20.422Z,12.40
2019-05-22T17:42:50.010Z,12.40
2019-05-22T17:45:21.099Z,12.40
2019-05-22T17:47:50.333Z,12.40
2019-05-22T17:50:26.551Z,12.30
2019-05-22T17:52:51.154Z,12.30
2019-05-22T17:55:21.453Z,12.30
2019-05-22T17:57:51.105Z,12.30
2019-05-22T18:00:38.262Z,12.40
2019-05-22T18:03:08.665Z,12.40
2019-05-22T18:05:38.853Z,12.30
2019-05-22T18:08:08.533Z,12.40
2019-05-22T18:10:40.585Z,12.30
2019-05-22T18:13:10.771Z,12.30
2019-05-22T18:15:42.358Z,12.30
2019-05-22T18:18:12.805Z,12.20
2019-05-22T18:20:44.158Z,12.20
2019-05-22T18:23:13.424Z,12.20
2019-05-22T18:25:43.226Z,12.10
2019-05-22T18:28:12.367Z,12.10
2019-05-22T18:30:42.921Z,12.10
2019-05-22T18:33:12.886Z,12.20
2019-05-22T18:35:42.197Z,12.20
2019-05-22T18:38:11.592Z,12.20
2019-05-22T18:40:40.726Z,12.20
2019-05-22T18:43:10.497Z,12.10
2019-05-22T18:45:40.340Z,12.10
2019-05-22T18:48:09.587Z,12.10
2019-05-22T18:50:38.750Z,12.00
2019-05-22T18:53:08.098Z,12.10
2019-05-22T18:55:37.298Z,12.10
2019-05-22T18:58:06.462Z,12.10
2019-05-22T19:00:36.144Z,12.10
2019-05-22T19:03:05.718Z,12.00
2019-05-22T19:05:34.905Z,12.10
2019-05-22T19:08:04.013Z,12.00
2019-05-22T19:10:33.905Z,12.00
2019-05-22T19:13:03.085Z,12.00
2019-05-22T19:15:32.243Z,12.10
2019-05-22T19:18:02.147Z,12.10
2019-05-22T19:20:31.321Z,12.00
2019-05-22T19:23:01.824Z,12.00
2019-05-22T19:25:31.433Z,12.00
2019-05-22T19:28:00.630Z,12.00
2019-05-22T19:30:29.929Z,12.00
2019-05-22T19:32:59.119Z,12.00
2019-05-22T19:35:28.294Z,12.00
2019-05-22T19:37:58.407Z,12.00
2019-05-22T19:40:27.594Z,12.00
2019-05-22T19:42:56.797Z,11.90
2019-05-22T19:45:25.914Z,11.90
2019-05-22T19:47:57.083Z,12.00
2019-05-22T19:50:27.066Z,11.90
2019-05-22T19:52:56.781Z,11.90
2019-05-22T19:55:27.849Z,11.90
2019-05-22T19:57:57.178Z,11.90
2019-05-22T20:00:26.370Z,11.90
2019-05-22T20:02:55.979Z,11.90
2019-05-22T20:05:25.594Z,11.90
2019-05-22T20:07:54.878Z,11.80
2019-05-22T20:10:24.129Z,11.90
2019-05-22T20:12:53.561Z,11.80
2019-05-22T20:15:24.068Z,11.80
2019-05-22T20:17:53.289Z,11.80
2019-05-22T20:20:24.446Z,11.80
2019-05-22T20:22:53.678Z,11.80
2019-05-22T20:25:22.964Z,11.80
2019-05-22T20:27:52.133Z,11.80
2019-05-22T20:30:22.921Z,11.80
2019-05-22T20:32:52.092Z,11.80
2019-05-22T20:35:21.292Z,11.80
2019-05-22T20:37:50.786Z,11.80
2019-05-22T20:40:22.304Z,11.90
2019-05-22T20:42:51.584Z,11.80
2019-05-22T20:45:23.089Z,11.90
2019-05-22T20:48:17.798Z,11.80
2019-05-22T20:50:47.453Z,11.90
2019-05-22T20:53:17.518Z,11.80
2019-05-22T20:55:48.353Z,11.90
2019-05-22T20:58:19.594Z,11.90
2019-05-22T21:00:49.806Z,11.90
2019-05-22T21:03:19.212Z,11.90
2019-05-22T21:05:49.393Z,11.90
2019-05-22T21:08:19.420Z,11.80
2019-05-22T21:10:50.453Z,11.90
2019-05-22T21:13:20.051Z,11.80
2019-05-22T21:15:51.062Z,11.80
2019-05-22T21:18:23.557Z,11.70
2019-05-22T21:20:55.408Z,11.80
2019-05-22T21:23:24.461Z,11.80
2019-05-22T21:25:54.489Z,11.80
2019-05-22T21:28:24.757Z,11.80
2019-05-22T21:30:55.329Z,11.70
2019-05-22T21:33:25.537Z,11.70
2019-05-22T21:35:55.152Z,11.70
2019-05-22T21:38:25.107Z,11.70
2019-05-22T21:40:54.750Z,11.70
2019-05-22T21:43:24.557Z,11.70
2019-05-22T21:45:54.145Z,11.60
2019-05-22T21:48:23.747Z,11.60
2019-05-22T21:50:52.933Z,11.60
2019-05-22T21:53:22.142Z,11.50
2019-05-22T21:56:03.670Z,11.50
2019-05-22T21:58:22.159Z,11.50
2019-05-22T22:01:26.489Z,11.40
2019-05-22T22:04:15.903Z,11.40
2019-05-22T22:06:45.397Z,11.30
2019-05-22T22:09:16.294Z,11.30
2019-05-22T22:11:46.181Z,11.20
2019-05-22T22:14:16.505Z,11.20
2019-05-22T22:16:47.178Z,11.20
2019-05-22T22:19:18.384Z,11.10
2019-05-22T22:21:48.541Z,11.10
2019-05-22T22:24:17.890Z,11.10
2019-05-22T22:26:48.733Z,11.10
2019-05-22T22:29:19.212Z,11.00
2019-05-22T22:31:48.817Z,11.00
2019-05-22T22:34:25.865Z,11.00
2019-05-22T22:36:56.981Z,10.90
2019-05-22T22:39:27.833Z,10.90
2019-05-22T22:42:00.320Z,10.90
2019-05-22T22:44:31.009Z,10.90
2019-05-22T22:47:04.453Z,10.80
2019-05-22T22:49:35.141Z,10.80
2019-05-22T22:52:04.849Z,10.80
2019-05-22T22:54:34.657Z,10.80
2019-05-22T22:57:05.566Z,10.80
2019-05-22T22:59:34.755Z,10.80
2019-05-22T23:02:05.638Z,10.80
2019-05-22T23:04:35.589Z,10.80
2019-05-22T23:07:07.719Z,10.80
2019-05-22T23:09:37.249Z,10.80
2019-05-22T23:12:08.057Z,10.80
2019-05-22T23:14:38.562Z,10.80
2019-05-22T23:17:08.794Z,10.70
2019-05-22T23:19:40.769Z,10.70
2019-05-22T23:22:24.219Z,10.70
2019-05-22T23:24:54.313Z,10.70
2019-05-22T23:27:25.185Z,10.60
2019-05-22T23:29:56.249Z,10.60
2019-05-22T23:32:25.826Z,10.60
2019-05-22T23:34:55.629Z,10.60
2019-05-22T23:37:26.557Z,10.60
2019-05-22T23:39:55.725Z,10.60
2019-05-22T23:42:29.373Z,10.60
2019-05-22T23:44:58.538Z,10.60
2019-05-22T23:47:28.039Z,10.60
2019-05-22T23:49:57.209Z,10.60
2019-05-22T23:52:26.718Z,10.60
2019-05-22T23:54:55.918Z,10.60
2019-05-22T23:57:26.661Z,10.60
2019-05-22T23:59:58.858Z,10.70
